Latest Weather Observations for East Sale

IDV60801

Issued at 10:05 pm EST Thursday 2 October 2014 (issued every 30 minutes, with the page automatically refreshed every 10 minutes)

About weather observations | Map of weather stations | Latest weather observations for VIC | Other Formats
Station Details ID: 085072 Name: EAST SALE AIRPORT Lat: -38.12 Lon: 147.13 Height: 4.6 m
Data from the previous 72 hours. | See also: Recent months at East Sale
Date/Time
EST
Temp
°C
App
Temp
°C
Dew
Point
Rel
Hum
%
Delta-T
°C
Wind Press
QNH
hPa
Press
MSL
hPa
Rain
since 9 am
mm
Dir
 
Spd
km/h
Gust
km/h
Spd
kts
Gust
kts
02/10:00pm 10.6 6.9 8.1 84 1.2 W 17 20 9 11 1022.9 - 0.0
02/09:30pm 10.7 6.7 8.2 84 1.2 W 19 24 10 13 1022.9 - 0.0
02/09:00pm 11.1 7.1 8.2 82 1.4 W 19 24 10 13 1023.1 1023.1 0.0
02/08:30pm 11.4 7.2 8.3 81 1.5 W 20 30 11 16 1022.9 - 0.0
02/08:00pm 11.5 7.4 8.7 83 1.4 W 20 28 11 15 1023.1 - 0.0
02/07:30pm 12.5 8.0 8.7 77 1.9 WSW 22 33 12 18 1022.7 - 0.0
02/07:00pm 12.5 7.7 8.7 77 1.9 W 24 35 13 19 1022.1 - 0.0
02/06:30pm 13.5 8.2 8.3 71 2.6 W 26 39 14 21 1021.8 - 0.0
02/06:00pm 14.0 10.5 8.9 71 2.6 W 17 26 9 14 1021.8 1021.8 0.0
02/05:30pm 14.1 8.5 8.8 70 2.7 W 28 39 15 21 1021.6 - 0.0
02/05:00pm 14.7 8.2 8.3 65 3.2 W 32 50 17 27 1021.2 - 0.0
02/04:32pm 14.6 7.5 8.0 64 3.3 W 35 54 19 29 1021.1 - 0.0
02/04:30pm 14.6 7.9 8.0 64 3.3 W 33 46 18 25 1021.1 - 0.0
02/04:00pm 15.1 6.5 8.1 63 3.5 W 43 56 23 30 1021.0 - 0.0
02/03:46pm 15.3 8.0 8.6 64 3.4 W 37 56 20 30 1020.8 - 0.0
02/03:30pm 14.9 7.4 8.1 64 3.4 W 37 50 20 27 1020.9 - 0.0
02/03:04pm 15.5 7.1 8.8 64 3.4 W 43 61 23 33 1020.8 - 0.0
02/03:00pm 14.9 5.8 8.3 64 3.3 W 46 61 25 33 1020.8 1020.8 0.0
02/02:30pm 14.7 7.2 8.1 64 3.3 WSW 37 57 20 31 1020.9 - 0.0
02/02:02pm 14.7 6.5 8.1 64 3.3 W 41 59 22 32 1021.0 - 0.0
02/02:00pm 14.7 6.0 7.9 63 3.4 W 43 59 23 32 1020.9 - 0.0
02/01:51pm 15.4 8.3 8.0 61 3.7 W 35 56 19 30 1020.8 - 0.0
02/01:30pm 16.6 8.5 8.8 60 4.0 W 41 56 22 30 1020.9 - 0.0
02/01:00pm 15.2 6.6 8.0 62 3.6 W 43 61 23 33 1020.9 - 0.0
02/12:48pm 15.3 7.0 7.9 61 3.7 W 41 59 22 32 1021.0 - 0.0
02/12:30pm 15.3 7.1 8.1 62 3.6 W 41 56 22 30 1021.1 - 0.0
02/12:15pm 15.0 7.1 8.0 63 3.5 W 39 57 21 31 1021.2 - 0.0
02/12:00pm 15.1 7.3 8.1 63 3.5 W 39 50 21 27 1021.5 1021.5 0.0
02/11:30am 14.5 6.9 7.6 63 3.4 W 37 57 20 31 1021.5 - 0.0
02/11:04am 14.5 6.6 7.9 64 3.3 W 39 57 21 31 1021.6 - 0.0
02/11:00am 14.4 6.8 7.7 64 3.3 W 37 54 20 29 1021.7 - 0.0
02/10:30am 14.3 6.3 7.6 64 3.3 W 39 54 21 29 1021.6 - 0.0
02/10:00am 13.8 7.9 7.7 66 3.0 W 28 46 15 25 1022.0 - 0.0
02/09:41am 13.3 6.0 7.1 66 3.0 W 35 54 19 29 1022.0 - 0.0
02/09:30am 13.4 6.6 7.5 67 2.9 W 33 48 18 26 1021.9 - 0.0
02/09:00am 12.7 7.5 7.1 69 2.7 W 24 37 13 20 1022.2 1022.2 2.0
02/08:30am 12.5 6.5 7.1 69 2.6 W 28 41 15 22 1021.9 - -
02/08:00am 12.2 5.8 6.8 69 2.6 W 30 39 16 21 1021.9 - -
02/07:30am 11.9 6.9 6.6 70 2.5 W 22 32 12 17 1021.9 - -
02/07:00am 11.4 6.4 6.5 72 2.3 WNW 22 28 12 15 1021.8 - -
02/06:30am 10.8 6.2 6.5 75 2.0 W 20 26 11 14 1021.8 - -
02/06:00am 10.5 5.4 6.2 75 2.0 W 22 26 12 14 1021.9 1021.9 -
02/05:30am 9.3 5.5 5.8 79 1.6 W 15 19 8 10 1021.8 - -
02/05:00am 8.3 5.1 5.2 81 1.4 WNW 11 13 6 7 1021.7 - -
02/04:30am 8.1 4.1 4.7 79 1.5 WNW 15 17 8 9 1021.8 - -
02/04:00am 8.2 3.3 5.1 81 1.4 W 20 24 11 13 1021.9 - -
02/03:30am 8.9 4.1 4.9 76 1.8 WNW 19 22 10 12 1022.0 - -
02/03:00am 8.0 3.4 5.6 85 1.1 WNW 19 20 10 11 1022.5 1022.5 -
02/02:30am 8.0 4.2 5.8 86 1.0 W 15 15 8 8 1022.6 - -
02/02:00am 8.7 5.3 6.1 84 1.2 W 13 17 7 9 1022.9 - -
02/01:30am 9.1 5.8 6.3 83 1.3 WNW 13 13 7 7 1023.1 - -
02/01:00am 8.9 5.5 5.8 81 1.4 WNW 13 15 7 8 1023.3 - -
02/12:30am 9.4 6.0 6.1 80 1.5 W 13 15 7 8 1023.6 - -
02/12:00am 9.3 6.3 6.0 80 1.5 WNW 11 15 6 8 1023.7 1023.7 -
 
Date/Time
EST
Temp
°C
App
Temp
°C
Dew
Point
Rel
Hum
%
Delta-T
°C
Wind Press
QNH
hPa
Press
MSL
hPa
Rain
since 9 am
mm
Dir
 
Spd
km/h
Gust
km/h
Spd
kts
Gust
kts
01/11:30pm 9.2 4.6 5.4 77 1.7 W 19 22 10 12 1023.8 - -
01/11:00pm 9.6 5.0 5.7 76 1.8 W 19 22 10 12 1024.0 - -
01/10:30pm 8.8 5.0 5.7 81 1.4 WNW 15 20 8 11 1023.9 - -
01/10:00pm 8.8 4.2 5.5 80 1.5 WNW 19 24 10 13 1024.0 - -
01/09:30pm 9.5 5.7 5.8 78 1.7 WNW 15 20 8 11 1024.5 - -
01/09:00pm 9.0 5.4 5.2 77 1.7 NW 13 15 7 8 1024.3 1024.3 -
01/08:30pm 9.3 5.0 5.3 76 1.8 WNW 17 19 9 10 1024.2 - -
01/08:00pm 9.7 5.0 5.3 74 2.0 W 19 24 10 13 1024.2 - -
01/07:30pm 10.3 5.4 5.2 70 2.3 W 20 24 11 13 1023.6 - -
01/07:00pm 10.6 6.8 5.6 71 2.3 WNW 15 20 8 11 1023.4 - -
01/06:30pm 11.1 6.2 5.2 67 2.7 W 20 28 11 15 1023.1 - -
01/06:00pm 11.5 6.2 4.9 64 3.0 W 22 35 12 19 1022.9 1022.9 -
01/05:30pm 12.4 6.1 4.0 56 3.8 W 26 35 14 19 1022.6 - -
01/05:00pm 13.2 5.7 4.2 54 4.1 W 33 46 18 25 1022.3 - -
01/04:30pm 13.2 6.0 5.0 57 3.8 W 32 48 17 26 1022.4 - -
01/04:19pm 13.5 6.4 3.5 51 4.5 W 30 56 16 30 1022.2 - -
01/04:00pm 14.4 6.8 3.0 46 5.1 W 32 43 17 23 1021.9 - -
01/03:30pm 14.8 6.5 2.4 43 5.5 W 35 48 19 26 1021.7 - -
01/03:00pm 14.2 6.5 3.3 48 4.9 W 33 43 18 23 1021.7 1021.7 2.0
01/02:30pm 14.8 6.7 1.1 39 5.9 W 33 48 18 26 1021.1 - -
01/02:00pm 15.3 7.6 2.3 41 5.8 W 32 46 17 25 1021.9 - 2.4
01/01:46pm 15.0 7.2 5.0 51 4.7 W 35 54 19 29 1021.6 - 2.4
01/01:30pm 15.1 7.0 3.2 45 5.4 W 35 48 19 26 1021.6 - 2.4
01/01:04pm 14.8 6.2 4.7 51 4.7 W 39 57 21 31 1021.5 - 2.4
01/01:00pm 14.8 7.1 5.3 53 4.5 W 35 50 19 27 1021.5 - 2.4
01/12:30pm 14.4 7.3 5.5 55 4.2 W 32 46 17 25 1021.7 - 2.4
01/12:00pm 14.5 8.7 8.1 65 3.2 W 28 35 15 19 1021.9 1021.9 2.4
01/11:30am 13.1 7.2 5.9 61 3.4 W 26 35 14 19 1022.2 - 2.4
01/11:00am 10.2 5.8 7.3 82 1.4 W 20 24 11 13 1022.4 - 2.4
01/10:48am 9.1 3.0 4.8 74 1.9 W 26 33 14 18 1022.6 - 2.4
01/10:41am 9.0 0.8 6.6 85 1.1 SW 39 46 21 25 1022.8 - 2.0
01/10:30am 10.9 3.7 5.7 70 2.4 W 33 48 18 26 1021.9 - 0.0
01/10:00am 12.6 6.1 6.3 65 3.0 W 30 41 16 22 1021.7 - 0.0
01/09:30am 11.9 4.9 5.9 66 2.8 W 32 43 17 23 1021.6 - 0.0
01/09:00am 10.9 3.7 5.2 68 2.6 W 32 44 17 24 1021.1 1021.1 7.0
01/08:30am 10.1 4.6 5.7 74 2.0 W 24 37 13 20 1020.9 - -
01/08:00am 9.7 2.6 5.5 75 1.9 W 32 43 17 23 1020.5 - -
01/07:30am 8.5 2.1 5.4 81 1.4 W 28 39 15 21 1019.5 - -
01/06:00am 6.3 0.4 4.0 85 1.0 W 24 32 13 17 1018.1 1018.1 6.8
01/05:30am 6.1 0.6 4.0 86 0.9 W 22 28 12 15 1017.6 - 6.8
01/05:00am 6.3 1.2 4.2 86 0.9 W 20 26 11 14 1017.0 - 6.8
01/04:30am 6.4 -0.3 3.8 83 1.1 W 28 39 15 21 1016.4 - 6.8
01/04:00am 6.6 -2.2 3.8 82 1.2 W 39 52 21 28 1015.5 - 6.8
01/03:43am 7.3 -0.8 3.0 74 1.8 W 35 56 19 30 1014.9 - 6.8
01/03:30am 6.8 -0.6 4.0 82 1.2 W 32 43 17 23 1015.1 - 6.8
01/03:00am 6.7 -0.8 3.4 79 1.4 W 32 43 17 23 1014.8 1014.8 6.8
01/02:30am 6.5 -0.2 3.4 80 1.3 W 28 39 15 21 1014.4 - 6.8
01/02:00am 6.7 -0.3 3.9 82 1.2 WNW 30 37 16 20 1014.2 - 6.8
01/01:30am 6.8 -1.3 3.2 78 1.5 W 35 46 19 25 1013.9 - 6.8
01/01:00am 6.8 -0.7 3.2 78 1.5 WNW 32 41 17 22 1013.7 - 6.8
01/12:30am 6.6 -1.5 3.5 80 1.3 WNW 35 48 19 26 1013.3 - 6.8
01/12:29am 6.6 -1.8 3.8 82 1.2 WNW 37 54 20 29 1013.3 - 6.8
01/12:17am 7.0 -2.0 4.7 85 1.0 W 41 54 22 29 1013.5 - 6.8
01/12:16am 7.0 -2.4 4.7 85 1.0 W 43 54 23 29 1013.6 - 6.8
01/12:00am 7.2 -2.2 4.7 84 1.1 W 43 59 23 32 1013.2 1013.2 6.4
 
Date/Time
EST
Temp
°C
App
Temp
°C
Dew
Point
Rel
Hum
%
Delta-T
°C
Wind Press
QNH
hPa
Press
MSL
hPa
Rain
since 9 am
mm
Dir
 
Spd
km/h
Gust
km/h
Spd
kts
Gust
kts
30/11:55pm 7.3 -2.8 4.0 79 1.4 W 46 59 25 32 1013.3 - 6.2
30/11:52pm 7.4 -1.6 4.4 81 1.3 WSW 41 57 22 31 1013.4 - 6.0
30/11:48pm 7.7 -0.8 5.0 83 1.2 SW 39 54 21 29 1013.1 - 5.4
30/11:30pm 9.2 1.6 3.1 65 2.6 W 32 43 17 23 1012.2 - 5.0
30/11:00pm 8.8 2.4 3.2 68 2.4 WNW 26 33 14 18 1012.2 - 5.0
30/10:30pm 9.0 1.5 3.7 69 2.3 W 32 44 17 24 1011.8 - 5.0
30/10:00pm 9.0 1.5 3.7 69 2.3 W 32 41 17 22 1011.4 - 5.0
30/09:30pm 9.4 1.7 3.4 66 2.6 WNW 33 48 18 26 1011.0 - 5.0
30/09:00pm 8.9 1.9 4.1 72 2.1 WNW 30 41 16 22 1010.8 1010.8 5.0
30/08:30pm 9.2 1.8 3.9 69 2.3 WNW 32 39 17 21 1010.6 - 5.0
30/08:08pm 9.5 1.2 4.3 70 2.3 WNW 37 56 20 30 1010.8 - 5.0
30/08:00pm 9.3 2.0 4.6 72 2.1 WNW 32 43 17 23 1010.5 - 5.0
30/07:30pm 8.8 1.0 5.0 77 1.7 WNW 35 52 19 28 1010.1 - 5.0
30/07:00pm 8.8 -0.6 5.2 78 1.6 W 44 61 24 33 1009.5 - 5.0
30/06:30pm 9.1 -1.1 5.3 77 1.7 W 48 69 26 37 1008.0 - 4.8
30/06:00pm 10.4 -0.4 5.8 73 2.1 W 52 - 28 - - 1008.0 -
30/05:31pm 11.5 0.7 9.3 86 1.1 WSW 56 76 30 41 1006.2 - 4.2
30/05:30pm 11.5 -0.2 9.3 86 1.1 WSW 61 76 33 41 1006.0 - 4.0
30/05:13pm 13.1 5.7 11.2 88 1.0 W 41 59 22 32 1005.2 - 1.6
30/05:07pm 13.1 5.3 11.2 88 1.0 W 43 59 23 32 1003.9 - 1.4
30/05:00pm 13.3 4.2 11.2 87 1.1 WSW 50 78 27 42 1003.8 - 0.2
30/04:46pm 14.9 2.2 9.9 72 2.6 W 67 87 36 47 1003.0 - 0.0
30/04:42pm 16.7 7.4 7.5 54 4.6 WNW 46 89 25 48 1002.5 - 0.0
30/04:30pm 21.7 13.2 5.1 34 8.2 NW 39 52 21 28 1000.6 - 0.0
30/04:00pm 22.0 12.4 4.4 31 8.6 NW 44 65 24 35 1000.7 - 0.0
30/03:30pm 21.9 10.7 3.9 30 8.7 NW 52 70 28 38 1001.6 - 0.0
30/03:26pm 22.0 11.2 4.1 31 8.7 NW 50 70 27 38 1001.3 - 0.0
30/03:14pm 22.3 9.5 4.6 31 8.7 NW 61 76 33 41 1000.9 - 0.0
30/03:08pm 22.9 13.9 4.7 30 9.0 NW 41 61 22 33 1001.1 - 0.0
30/03:00pm 23.1 12.6 3.8 28 9.4 NW 48 61 26 33 1001.2 1001.2 0.0
30/02:36pm 23.4 13.7 5.6 31 9.0 NW 46 67 25 36 1001.3 - 0.0
30/02:30pm 23.1 13.7 4.4 29 9.2 NW 43 57 23 31 1001.4 - 0.0
30/02:00pm 23.3 13.0 4.5 29 9.3 NW 48 67 26 36 1002.4 - 0.0
30/01:53pm 23.2 13.6 4.6 30 9.2 NW 44 67 24 36 1002.4 - 0.0
30/01:30pm 23.3 14.0 6.0 32 8.8 NW 44 56 24 30 1002.8 - 0.0
30/01:00pm 22.6 15.0 5.7 33 8.5 WNW 35 48 19 26 1003.4 - 0.0
30/12:30pm 23.3 16.2 6.6 34 8.6 NW 33 44 18 24 1003.8 - 0.0
30/12:00pm 22.3 13.7 4.9 32 8.6 WNW 39 50 21 27 1004.8 1004.8 0.0
30/11:30am 22.3 13.9 5.5 33 8.4 NW 39 56 21 30 1005.4 - 0.0
30/11:28am 22.2 14.2 5.6 34 8.3 NW 37 56 20 30 1005.5 - 0.0
30/11:00am 20.8 13.0 6.8 40 7.1 WNW 37 48 20 26 1006.2 - 0.0
30/10:30am 20.4 16.0 10.4 52 5.4 NW 24 44 13 24 1006.9 - 0.0
30/10:00am 19.4 16.2 10.1 55 5.0 W 17 20 9 11 1007.6 - 0.0
30/09:30am 18.8 14.9 9.5 54 4.9 WSW 20 26 11 14 1008.2 - 0.0
30/09:00am 17.7 14.7 10.6 63 3.8 WSW 17 24 9 13 1008.7 1008.7 0.0
30/08:30am 16.3 13.1 10.0 66 3.3 WSW 17 22 9 12 1008.7 - 0.0
30/08:00am 14.2 11.9 9.1 71 2.6 W 11 15 6 8 1008.8 - 0.0
30/07:30am 12.0 9.9 8.1 77 1.9 WSW 9 11 5 6 1008.8 - 0.0
30/07:00am 10.4 7.4 7.7 83 1.3 WSW 13 17 7 9 1008.8 - 0.0
30/06:30am 11.5 8.0 7.3 75 2.0 N 15 19 8 10 1008.4 - 0.0
30/06:00am 10.6 7.3 6.6 76 1.9 N 13 17 7 9 1008.4 1008.4 0.0
30/05:30am 10.2 6.2 6.6 78 1.7 NNE 17 22 9 12 1008.5 - 0.0
30/05:00am 9.8 6.5 6.6 80 1.5 N 13 15 7 8 1008.7 - 0.0
30/04:30am 8.3 5.7 6.1 86 1.0 N 9 13 5 7 1008.9 - 0.0
30/04:00am 9.0 5.0 6.6 85 1.1 N 17 19 9 10 1009.0 - 0.0
30/03:30am 8.6 6.1 6.7 88 0.9 N 9 11 5 6 1009.5 - 0.0
30/03:00am 7.1 4.8 5.5 89 0.7 NNE 7 11 4 6 1010.0 1010.0 0.0
30/02:30am 8.1 6.2 6.6 90 0.7 NNW 6 9 3 5 1010.6 - 0.0
30/02:00am 6.9 4.6 5.6 91 0.6 WNW 7 13 4 7 1011.0 - 0.0
30/01:30am 7.0 4.4 6.1 94 0.4 N 9 15 5 8 1011.3 - 0.0
30/01:00am 6.4 5.0 5.7 95 0.3 S 2 9 1 5 1011.6 - 0.0
30/12:30am 7.8 6.4 7.2 96 0.3 SSE 4 9 2 5 1011.8 - 0.0
30/12:00am 7.9 6.1 7.0 94 0.4 SSW 6 7 3 4 1012.0 1012.0 0.0
 
Date/Time
EST
Temp
°C
App
Temp
°C
Dew
Point
Rel
Hum
%
Delta-T
°C
Wind Press
QNH
hPa
Press
MSL
hPa
Rain
since 9 am
mm
Dir
 
Spd
km/h
Gust
km/h
Spd
kts
Gust
kts
29/11:30pm 7.6 6.0 6.5 93 0.5 WNW 4 7 2 4 1012.1 - 0.0
29/11:00pm 10.6 9.5 8.3 86 1.1 NNE 4 9 2 5 1012.4 - 0.0
29/10:30pm 9.1 6.1 7.6 90 0.7 NE 13 17 7 9 1012.4 - 0.0

Other Formats:

Comma delimited format used in spreadsheet applications
http://www.bom.gov.au/fwo/IDV60801/IDV60801.94907.axf

JavaScript Object Notation format (JSON) in row-major order
http://www.bom.gov.au/fwo/IDV60801/IDV60801.94907.json